sensor_id;sensor_type;location;lat;lon;timestamp;pressure;altitude;pressure_sealevel;temperature;humidity
70027;BME280;57506;50.092;15.804;2023-03-26T00:00:10;98204.50;;;7.26;100.00
70027;BME280;57506;50.092;15.804;2023-03-26T00:02:37;98210.25;;;7.23;100.00
70027;BME280;57506;50.092;15.804;2023-03-26T00:05:05;98196.59;;;7.18;100.00
70027;BME280;57506;50.092;15.804;2023-03-26T00:07:30;98202.75;;;7.12;100.00
70027;BME280;57506;50.092;15.804;2023-03-26T00:09:56;98214.81;;;7.01;100.00
70027;BME280;57506;50.092;15.804;2023-03-26T00:12:24;98205.72;;;6.95;100.00
70027;BME280;57506;50.092;15.804;2023-03-26T00:14:49;98210.47;;;7.00;100.00
70027;BME280;57506;50.092;15.804;2023-03-26T00:17:17;98209.28;;;7.02;100.00
70027;BME280;57506;50.092;15.804;2023-03-26T00:19:42;98209.44;;;6.94;100.00
70027;BME280;57506;50.092;15.804;2023-03-26T00:22:08;98194.19;;;6.95;100.00
70027;BME280;57506;50.092;15.804;2023-03-26T00:24:38;98207.19;;;6.98;100.00
70027;BME280;57506;50.092;15.804;2023-03-26T00:27:04;98202.91;;;7.03;100.00
70027;BME280;57506;50.092;15.804;2023-03-26T00:29:30;98198.75;;;7.01;100.00
70027;BME280;57506;50.092;15.804;2023-03-26T00:31:58;98206.84;;;7.08;100.00
70027;BME280;57506;50.092;15.804;2023-03-26T00:34:23;98195.38;;;7.20;100.00
70027;BME280;57506;50.092;15.804;2023-03-26T00:36:50;98192.69;;;7.20;100.00
70027;BME280;57506;50.092;15.804;2023-03-26T00:39:19;98184.19;;;7.10;100.00
70027;BME280;57506;50.092;15.804;2023-03-26T00:41:46;98196.75;;;7.10;100.00
70027;BME280;57506;50.092;15.804;2023-03-26T00:44:12;98197.63;;;7.17;100.00
70027;BME280;57506;50.092;15.804;2023-03-26T00:46:37;98195.06;;;7.36;100.00
70027;BME280;57506;50.092;15.804;2023-03-26T00:49:04;98197.47;;;7.25;100.00
70027;BME280;57506;50.092;15.804;2023-03-26T00:51:30;98189.25;;;7.33;100.00
70027;BME280;57506;50.092;15.804;2023-03-26T00:53:57;98201.66;;;7.34;100.00
70027;BME280;57506;50.092;15.804;2023-03-26T00:56:23;98194.91;;;7.10;100.00
70027;BME280;57506;50.092;15.804;2023-03-26T00:58:49;98182.94;;;7.06;100.00
70027;BME280;57506;50.092;15.804;2023-03-26T01:01:22;98184.59;;;7.07;100.00
70027;BME280;57506;50.092;15.804;2023-03-26T01:03:52;98190.38;;;7.11;100.00
70027;BME280;57506;50.092;15.804;2023-03-26T01:06:26;98193.69;;;7.13;100.00
70027;BME280;57506;50.092;15.804;2023-03-26T01:08:57;98186.31;;;7.21;100.00
70027;BME280;57506;50.092;15.804;2023-03-26T01:11:33;98184.63;;;7.14;100.00
70027;BME280;57506;50.092;15.804;2023-03-26T01:14:05;98174.34;;;7.17;100.00
70027;BME280;57506;50.092;15.804;2023-03-26T01:16:45;98181.72;;;7.15;100.00
70027;BME280;57506;50.092;15.804;2023-03-26T01:19:26;98186.31;;;7.21;100.00
70027;BME280;57506;50.092;15.804;2023-03-26T01:21:57;98187.16;;;7.22;100.00
70027;BME280;57506;50.092;15.804;2023-03-26T01:24:23;98185.25;;;7.16;100.00
70027;BME280;57506;50.092;15.804;2023-03-26T01:27:06;98184.28;;;7.23;100.00
70027;BME280;57506;50.092;15.804;2023-03-26T01:29:44;98185.88;;;7.18;100.00
70027;BME280;57506;50.092;15.804;2023-03-26T01:40:59;98175.13;;;7.11;100.00
70027;BME280;57506;50.092;15.804;2023-03-26T01:46:05;98163.63;;;7.17;100.00
70027;BME280;57506;50.092;15.804;2023-03-26T01:48:40;98166.53;;;7.22;100.00
70027;BME280;57506;50.092;15.804;2023-03-26T01:51:09;98172.56;;;7.31;100.00
70027;BME280;57506;50.092;15.804;2023-03-26T01:53:39;98168.19;;;7.23;100.00
70027;BME280;57506;50.092;15.804;2023-03-26T02:01:25;98163.72;;;6.96;100.00
70027;BME280;57506;50.092;15.804;2023-03-26T02:04:03;98165.56;;;6.95;100.00
70027;BME280;57506;50.092;15.804;2023-03-26T02:06:43;98163.59;;;6.83;100.00
70027;BME280;57506;50.092;15.804;2023-03-26T02:09:24;98155.97;;;6.80;100.00
70027;BME280;57506;50.092;15.804;2023-03-26T02:11:53;98149.59;;;6.81;100.00
70027;BME280;57506;50.092;15.804;2023-03-26T02:14:20;98160.09;;;6.82;100.00
70027;BME280;57506;50.092;15.804;2023-03-26T02:16:45;98159.69;;;6.79;100.00
70027;BME280;57506;50.092;15.804;2023-03-26T02:19:12;98157.63;;;6.81;100.00
70027;BME280;57506;50.092;15.804;2023-03-26T02:21:47;98145.47;;;6.78;100.00
70027;BME280;57506;50.092;15.804;2023-03-26T02:24:19;98141.22;;;6.62;100.00
70027;BME280;57506;50.092;15.804;2023-03-26T02:26:44;98159.59;;;6.72;100.00
70027;BME280;57506;50.092;15.804;2023-03-26T02:29:12;98157.75;;;6.73;100.00
70027;BME280;57506;50.092;15.804;2023-03-26T02:31:38;98160.91;;;6.83;100.00
70027;BME280;57506;50.092;15.804;2023-03-26T02:34:03;98168.00;;;6.90;100.00
70027;BME280;57506;50.092;15.804;2023-03-26T02:36:29;98172.38;;;6.98;100.00
70027;BME280;57506;50.092;15.804;2023-03-26T02:38:55;98173.41;;;6.97;100.00
70027;BME280;57506;50.092;15.804;2023-03-26T02:41:22;98178.84;;;7.10;100.00
70027;BME280;57506;50.092;15.804;2023-03-26T02:43:47;98176.50;;;7.00;100.00
70027;BME280;57506;50.092;15.804;2023-03-26T02:46:13;98174.44;;;7.02;100.00
70027;BME280;57506;50.092;15.804;2023-03-26T02:48:38;98174.56;;;7.22;100.00
70027;BME280;57506;50.092;15.804;2023-03-26T02:51:05;98177.72;;;7.32;100.00
70027;BME280;57506;50.092;15.804;2023-03-26T02:53:31;98186.00;;;7.37;100.00
70027;BME280;57506;50.092;15.804;2023-03-26T02:55:58;98176.69;;;7.33;100.00
70027;BME280;57506;50.092;15.804;2023-03-26T02:58:26;98168.44;;;7.28;100.00
70027;BME280;57506;50.092;15.804;2023-03-26T03:00:55;98176.53;;;7.42;100.00
70027;BME280;57506;50.092;15.804;2023-03-26T03:03:25;98177.38;;;7.49;100.00
70027;BME280;57506;50.092;15.804;2023-03-26T03:05:55;98179.53;;;7.60;100.00
70027;BME280;57506;50.092;15.804;2023-03-26T03:08:23;98171.84;;;7.50;100.00
70027;BME280;57506;50.092;15.804;2023-03-26T03:11:07;98176.22;;;7.64;100.00
70027;BME280;57506;50.092;15.804;2023-03-26T03:13:32;98175.56;;;7.56;100.00
70027;BME280;57506;50.092;15.804;2023-03-26T03:15:58;98164.59;;;7.44;100.00
70027;BME280;57506;50.092;15.804;2023-03-26T03:18:23;98152.19;;;7.36;100.00
70027;BME280;57506;50.092;15.804;2023-03-26T03:20:50;98168.94;;;7.52;100.00
70027;BME280;57506;50.092;15.804;2023-03-26T03:23:15;98169.13;;;7.44;100.00
70027;BME280;57506;50.092;15.804;2023-03-26T03:25:41;98163.28;;;7.33;100.00
70027;BME280;57506;50.092;15.804;2023-03-26T03:28:07;98164.94;;;7.34;100.00
70027;BME280;57506;50.092;15.804;2023-03-26T03:30:33;98169.78;;;7.46;100.00
70027;BME280;57506;50.092;15.804;2023-03-26T03:32:59;98170.34;;;7.41;100.00
70027;BME280;57506;50.092;15.804;2023-03-26T03:35:26;98172.00;;;7.42;100.00
70027;BME280;57506;50.092;15.804;2023-03-26T03:37:52;98181.09;;;7.48;100.00
70027;BME280;57506;50.092;15.804;2023-03-26T03:40:18;98177.31;;;7.29;100.00
70027;BME280;57506;50.092;15.804;2023-03-26T03:42:44;98179.41;;;7.40;100.00
70027;BME280;57506;50.092;15.804;2023-03-26T03:45:11;98175.72;;;7.48;100.00
70027;BME280;57506;50.092;15.804;2023-03-26T03:47:37;98181.56;;;7.58;100.00
70027;BME280;57506;50.092;15.804;2023-03-26T03:50:03;98165.88;;;7.55;100.00
70027;BME280;57506;50.092;15.804;2023-03-26T03:52:29;98158.84;;;7.54;100.00
70027;BME280;57506;50.092;15.804;2023-03-26T03:54:55;98168.78;;;7.60;100.00
70027;BME280;57506;50.092;15.804;2023-03-26T03:57:22;98167.91;;;7.46;100.00
70027;BME280;57506;50.092;15.804;2023-03-26T03:59:48;98176.59;;;7.55;100.00
70027;BME280;57506;50.092;15.804;2023-03-26T04:02:14;98183.22;;;7.59;100.00
70027;BME280;57506;50.092;15.804;2023-03-26T04:04:52;98174.56;;;7.57;100.00
70027;BME280;57506;50.092;15.804;2023-03-26T04:07:19;98172.25;;;7.54;100.00
70027;BME280;57506;50.092;15.804;2023-03-26T04:09:45;98174.16;;;7.60;100.00
70027;BME280;57506;50.092;15.804;2023-03-26T04:12:10;98176.25;;;7.71;99.56
70027;BME280;57506;50.092;15.804;2023-03-26T04:14:36;98173.97;;;7.68;99.28
70027;BME280;57506;50.092;15.804;2023-03-26T04:17:01;98177.91;;;7.72;100.00
70027;BME280;57506;50.092;15.804;2023-03-26T04:19:29;98174.16;;;7.66;100.00
70027;BME280;57506;50.092;15.804;2023-03-26T04:21:55;98168.22;;;7.71;100.00
70027;BME280;57506;50.092;15.804;2023-03-26T04:24:29;98170.09;;;7.77;100.00
70027;BME280;57506;50.092;15.804;2023-03-26T04:26:58;98166.78;;;7.75;100.00
70027;BME280;57506;50.092;15.804;2023-03-26T04:29:25;98161.44;;;7.75;100.00
70027;BME280;57506;50.092;15.804;2023-03-26T04:31:54;98159.97;;;7.72;100.00
70027;BME280;57506;50.092;15.804;2023-03-26T04:34:23;98168.78;;;7.60;100.00
70027;BME280;57506;50.092;15.804;2023-03-26T04:36:52;98163.47;;;7.73;100.00
70027;BME280;57506;50.092;15.804;2023-03-26T04:39:19;98164.75;;;7.77;100.00
70027;BME280;57506;50.092;15.804;2023-03-26T04:41:56;98159.78;;;7.81;100.00
70027;BME280;57506;50.092;15.804;2023-03-26T04:44:22;98164.31;;;7.73;100.00
70027;BME280;57506;50.092;15.804;2023-03-26T04:46:51;98155.25;;;7.75;100.00
70027;BME280;57506;50.092;15.804;2023-03-26T04:49:19;98158.97;;;7.87;100.00
70027;BME280;57506;50.092;15.804;2023-03-26T04:51:45;98162.53;;;7.94;100.00
70027;BME280;57506;50.092;15.804;2023-03-26T04:54:12;98147.47;;;7.93;100.00
70027;BME280;57506;50.092;15.804;2023-03-26T04:56:54;98162.94;;;7.97;100.00
70027;BME280;57506;50.092;15.804;2023-03-26T04:59:30;98148.69;;;7.97;100.00
70027;BME280;57506;50.092;15.804;2023-03-26T05:02:00;98148.09;;;7.95;100.00
70027;BME280;57506;50.092;15.804;2023-03-26T05:04:27;98151.16;;;7.98;100.00
70027;BME280;57506;50.092;15.804;2023-03-26T05:06:56;98144.56;;;7.94;100.00
70027;BME280;57506;50.092;15.804;2023-03-26T05:09:26;98135.50;;;7.95;100.00
70027;BME280;57506;50.092;15.804;2023-03-26T05:11:51;98146.00;;;7.97;100.00
70027;BME280;57506;50.092;15.804;2023-03-26T05:14:18;98146.03;;;8.03;100.00
70027;BME280;57506;50.092;15.804;2023-03-26T05:16:45;98146.66;;;8.12;100.00
70027;BME280;57506;50.092;15.804;2023-03-26T05:19:12;98141.28;;;8.05;100.00
70027;BME280;57506;50.092;15.804;2023-03-26T05:21:37;98142.53;;;8.10;100.00
70027;BME280;57506;50.092;15.804;2023-03-26T05:24:03;98143.38;;;8.17;100.00
70027;BME280;57506;50.092;15.804;2023-03-26T05:26:31;98132.19;;;8.13;100.00
70027;BME280;57506;50.092;15.804;2023-03-26T05:28:57;98148.31;;;8.20;100.00
70027;BME280;57506;50.092;15.804;2023-03-26T05:31:22;98144.81;;;8.19;100.00
70027;BME280;57506;50.092;15.804;2023-03-26T05:33:48;98163.19;;;8.22;100.00
70027;BME280;57506;50.092;15.804;2023-03-26T05:36:15;98151.63;;;8.15;100.00
70027;BME280;57506;50.092;15.804;2023-03-26T05:38:42;98158.44;;;8.18;100.00
70027;BME280;57506;50.092;15.804;2023-03-26T05:41:12;98149.13;;;8.14;100.00
70027;BME280;57506;50.092;15.804;2023-03-26T05:43:38;98142.94;;;8.06;100.00
70027;BME280;57506;50.092;15.804;2023-03-26T05:46:03;98152.00;;;8.12;100.00
70027;BME280;57506;50.092;15.804;2023-03-26T05:48:29;98153.72;;;8.26;100.00
70027;BME280;57506;50.092;15.804;2023-03-26T05:50:56;98150.13;;;7.99;100.00
70027;BME280;57506;50.092;15.804;2023-03-26T05:53:24;98155.31;;;8.01;100.00
70027;BME280;57506;50.092;15.804;2023-03-26T05:55:50;98141.47;;;7.97;100.00
70027;BME280;57506;50.092;15.804;2023-03-26T05:58:31;98154.94;;;8.11;100.00
70027;BME280;57506;50.092;15.804;2023-03-26T06:01:10;98156.16;;;8.15;99.79
70027;BME280;57506;50.092;15.804;2023-03-26T06:03:41;98153.28;;;8.10;99.58
70027;BME280;57506;50.092;15.804;2023-03-26T06:06:11;98157.81;;;8.16;99.38
70027;BME280;57506;50.092;15.804;2023-03-26T06:08:50;98167.53;;;8.23;100.00
70027;BME280;57506;50.092;15.804;2023-03-26T06:11:19;98168.63;;;8.42;99.02
70027;BME280;57506;50.092;15.804;2023-03-26T06:13:45;98164.28;;;8.61;98.64
70027;BME280;57506;50.092;15.804;2023-03-26T06:16:12;98155.84;;;8.70;95.95
70027;BME280;57506;50.092;15.804;2023-03-26T06:18:38;98158.28;;;8.78;96.70
70027;BME280;57506;50.092;15.804;2023-03-26T06:21:05;98162.84;;;8.71;97.17
70027;BME280;57506;50.092;15.804;2023-03-26T06:23:31;98164.28;;;8.67;97.26
70027;BME280;57506;50.092;15.804;2023-03-26T06:25:58;98174.81;;;8.82;97.37
70027;BME280;57506;50.092;15.804;2023-03-26T06:28:24;98156.03;;;8.89;94.59
70027;BME280;57506;50.092;15.804;2023-03-26T06:30:49;98167.38;;;8.97;96.53
70027;BME280;57506;50.092;15.804;2023-03-26T06:33:15;98168.16;;;9.11;95.69
70027;BME280;57506;50.092;15.804;2023-03-26T06:35:41;98164.00;;;9.28;94.10
70027;BME280;57506;50.092;15.804;2023-03-26T06:38:08;98155.38;;;9.06;95.42
70027;BME280;57506;50.092;15.804;2023-03-26T06:40:34;98163.69;;;8.92;95.13
70027;BME280;57506;50.092;15.804;2023-03-26T06:43:00;98152.50;;;8.95;93.92
70027;BME280;57506;50.092;15.804;2023-03-26T06:45:27;98154.53;;;9.19;96.10
70027;BME280;57506;50.092;15.804;2023-03-26T06:47:52;98142.09;;;9.31;94.36
70027;BME280;57506;50.092;15.804;2023-03-26T06:50:18;98163.47;;;9.71;92.17
70027;BME280;57506;50.092;15.804;2023-03-26T06:52:44;98150.47;;;10.06;90.27
70027;BME280;57506;50.092;15.804;2023-03-26T06:55:10;98147.88;;;10.24;92.63
70027;BME280;57506;50.092;15.804;2023-03-26T06:57:36;98148.72;;;10.18;89.09
70027;BME280;57506;50.092;15.804;2023-03-26T07:00:03;98146.28;;;10.10;90.06
70027;BME280;57506;50.092;15.804;2023-03-26T07:02:29;98119.09;;;9.87;90.84
70027;BME280;57506;50.092;15.804;2023-03-26T07:04:54;98150.34;;;9.88;88.80
70027;BME280;57506;50.092;15.804;2023-03-26T07:07:21;98149.84;;;10.04;89.92
70027;BME280;57506;50.092;15.804;2023-03-26T07:09:49;98148.25;;;10.34;91.87
70027;BME280;57506;50.092;15.804;2023-03-26T07:12:15;98142.41;;;10.37;89.36
70027;BME280;57506;50.092;15.804;2023-03-26T07:14:40;98147.88;;;10.24;86.40
70027;BME280;57506;50.092;15.804;2023-03-26T07:17:06;98148.44;;;9.95;87.53
70027;BME280;57506;50.092;15.804;2023-03-26T07:19:31;98145.53;;;9.96;89.84
70027;BME280;57506;50.092;15.804;2023-03-26T07:21:57;98135.19;;;9.93;88.32
70027;BME280;57506;50.092;15.804;2023-03-26T07:24:24;98136.75;;;10.07;88.08
70027;BME280;57506;50.092;15.804;2023-03-26T07:29:40;98144.56;;;9.84;87.48
70027;BME280;57506;50.092;15.804;2023-03-26T07:40:45;98137.78;;;10.13;85.76
70027;BME280;57506;50.092;15.804;2023-03-26T07:46:04;98137.22;;;10.04;87.53
70027;BME280;57506;50.092;15.804;2023-03-26T07:48:41;98138.81;;;10.12;85.42
70027;BME280;57506;50.092;15.804;2023-03-26T07:51:08;98127.63;;;10.22;83.00
70027;BME280;57506;50.092;15.804;2023-03-26T07:53:34;98127.56;;;10.28;82.57
70027;BME280;57506;50.092;15.804;2023-03-26T07:56:19;98124.28;;;10.76;82.59
70027;BME280;57506;50.092;15.804;2023-03-26T08:01:42;98117.06;;;10.95;83.87
70027;BME280;57506;50.092;15.804;2023-03-26T08:04:53;98104.34;;;11.02;83.10
70027;BME280;57506;50.092;15.804;2023-03-26T08:10:02;98109.81;;;11.13;79.82
70027;BME280;57506;50.092;15.804;2023-03-26T08:15:20;98104.88;;;10.67;78.26
70027;BME280;57506;50.092;15.804;2023-03-26T08:20:48;98099.09;;;10.64;79.83
70027;BME280;57506;50.092;15.804;2023-03-26T08:23:39;98099.72;;;10.66;79.23
70027;BME280;57506;50.092;15.804;2023-03-26T08:26:30;98093.59;;;10.77;79.15
70027;BME280;57506;50.092;15.804;2023-03-26T08:29:17;98094.59;;;11.01;77.61
70027;BME280;57506;50.092;15.804;2023-03-26T08:31:47;98099.66;;;10.91;77.82
70027;BME280;57506;50.092;15.804;2023-03-26T08:34:13;98094.53;;;10.64;80.18
70027;BME280;57506;50.092;15.804;2023-03-26T08:36:39;98103.59;;;10.45;79.65
70027;BME280;57506;50.092;15.804;2023-03-26T08:39:04;98111.41;;;10.28;78.29
70027;BME280;57506;50.092;15.804;2023-03-26T08:58:59;98099.72;;;10.66;82.77
70027;BME280;57506;50.092;15.804;2023-03-26T09:30:22;98076.91;;;11.23;78.85
70027;BME280;57506;50.092;15.804;2023-03-26T09:35:52;98070.19;;;11.32;81.00
70027;BME280;57506;50.092;15.804;2023-03-26T09:41:16;98062.19;;;11.55;77.61
70027;BME280;57506;50.092;15.804;2023-03-26T10:03:14;98045.84;;;11.69;74.81
70027;BME280;57506;50.092;15.804;2023-03-26T10:33:01;98019.34;;;12.07;74.15
70027;BME280;57506;50.092;15.804;2023-03-26T10:38:13;98010.47;;;12.30;71.82
70027;BME280;57506;50.092;15.804;2023-03-26T10:41:01;98011.25;;;12.19;71.45
70027;BME280;57506;50.092;15.804;2023-03-26T10:53:02;97991.66;;;12.23;69.27
70027;BME280;57506;50.092;15.804;2023-03-26T10:55:37;97976.38;;;12.41;70.20
70027;BME280;57506;50.092;15.804;2023-03-26T11:00:47;97985.25;;;13.00;67.24
70027;BME280;57506;50.092;15.804;2023-03-26T11:09:04;97969.47;;;13.20;66.09
70027;BME280;57506;50.092;15.804;2023-03-26T11:19:54;97960.34;;;12.98;64.84
70027;BME280;57506;50.092;15.804;2023-03-26T11:22:49;97944.78;;;13.05;66.79
70027;BME280;57506;50.092;15.804;2023-03-26T11:33:34;97931.34;;;13.50;66.10
70027;BME280;57506;50.092;15.804;2023-03-26T11:36:05;97931.97;;;13.40;63.46
70027;BME280;57506;50.092;15.804;2023-03-26T11:38:41;97921.59;;;13.20;63.72
70027;BME280;57506;50.092;15.804;2023-03-26T11:41:20;97912.63;;;13.48;63.23
70027;BME280;57506;50.092;15.804;2023-03-26T11:43:50;97911.41;;;13.39;63.42
70027;BME280;57506;50.092;15.804;2023-03-26T11:46:20;97901.41;;;13.56;60.24
70027;BME280;57506;50.092;15.804;2023-03-26T11:48:51;97902.84;;;13.76;63.10
70027;BME280;57506;50.092;15.804;2023-03-26T11:51:31;97892.81;;;14.10;62.07
70027;BME280;57506;50.092;15.804;2023-03-26T11:53:58;97889.25;;;14.26;55.76
70027;BME280;57506;50.092;15.804;2023-03-26T11:56:29;97894.47;;;14.49;59.76
70027;BME280;57506;50.092;15.804;2023-03-26T11:59:02;97890.69;;;14.12;56.97
70027;BME280;57506;50.092;15.804;2023-03-26T12:01:58;97892.25;;;14.08;60.66
70027;BME280;57506;50.092;15.804;2023-03-26T12:04:44;97884.75;;;13.98;57.65
70027;BME280;57506;50.092;15.804;2023-03-26T12:10:29;97880.00;;;14.05;63.63
70027;BME280;57506;50.092;15.804;2023-03-26T12:13:00;97869.84;;;13.79;57.51
70027;BME280;57506;50.092;15.804;2023-03-26T12:15:28;97859.06;;;13.50;60.41
70027;BME280;57506;50.092;15.804;2023-03-26T12:17:57;97873.72;;;13.21;59.57
70027;BME280;57506;50.092;15.804;2023-03-26T12:22:53;97877.19;;;13.33;61.02
70027;BME280;57506;50.092;15.804;2023-03-26T12:30:38;97866.69;;;12.80;63.61
70027;BME280;57506;50.092;15.804;2023-03-26T12:33:18;97870.31;;;12.85;64.77
70027;BME280;57506;50.092;15.804;2023-03-26T12:35:47;97870.88;;;12.87;64.70
70027;BME280;57506;50.092;15.804;2023-03-26T12:38:28;97867.97;;;13.17;66.71
70027;BME280;57506;50.092;15.804;2023-03-26T12:41:07;97866.00;;;13.01;62.41
70027;BME280;57506;50.092;15.804;2023-03-26T12:43:41;97871.88;;;13.10;61.47
70027;BME280;57506;50.092;15.804;2023-03-26T12:48:53;97850.28;;;13.26;61.27
70027;BME280;57506;50.092;15.804;2023-03-26T12:51:53;97857.34;;;13.27;60.95
70027;BME280;57506;50.092;15.804;2023-03-26T12:54:37;97864.22;;;13.07;63.56
70027;BME280;57506;50.092;15.804;2023-03-26T12:59:59;97860.06;;;12.87;62.64
70027;BME280;57506;50.092;15.804;2023-03-26T13:02:40;97857.59;;;12.86;62.96
70027;BME280;57506;50.092;15.804;2023-03-26T13:08:05;97846.75;;;13.26;62.31
70027;BME280;57506;50.092;15.804;2023-03-26T13:10:47;97847.28;;;13.40;65.09
70027;BME280;57506;50.092;15.804;2023-03-26T13:16:19;97835.38;;;13.24;63.24
70027;BME280;57506;50.092;15.804;2023-03-26T13:18:55;97836.91;;;13.20;63.91
70027;BME280;57506;50.092;15.804;2023-03-26T13:21:34;97833.66;;;13.06;63.42
70027;BME280;57506;50.092;15.804;2023-03-26T13:24:07;97832.13;;;12.82;66.46
70027;BME280;57506;50.092;15.804;2023-03-26T13:29:19;97822.03;;;12.77;67.45
70027;BME280;57506;50.092;15.804;2023-03-26T13:32:07;97817.50;;;12.66;64.71
70027;BME280;57506;50.092;15.804;2023-03-26T13:40:20;97826.38;;;12.78;63.88
70027;BME280;57506;50.092;15.804;2023-03-26T13:46:19;97805.59;;;12.79;65.82
70027;BME280;57506;50.092;15.804;2023-03-26T13:48:50;97794.69;;;12.90;65.07
70027;BME280;57506;50.092;15.804;2023-03-26T13:52:10;97800.78;;;12.69;64.18
70027;BME280;57506;50.092;15.804;2023-03-26T13:54:33;97805.28;;;12.64;64.31
70027;BME280;57506;50.092;15.804;2023-03-26T13:59:38;97792.31;;;12.49;64.31
70027;BME280;57506;50.092;15.804;2023-03-26T14:02:38;97795.72;;;12.44;60.80
70027;BME280;57506;50.092;15.804;2023-03-26T14:05:13;97786.22;;;12.42;61.28
70027;BME280;57506;50.092;15.804;2023-03-26T14:07:45;97788.22;;;12.35;62.05
70027;BME280;57506;50.092;15.804;2023-03-26T14:10:34;97788.88;;;12.13;59.87
70027;BME280;57506;50.092;15.804;2023-03-26T14:13:21;97786.75;;;12.04;61.23
70027;BME280;57506;50.092;15.804;2023-03-26T14:16:21;97798.38;;;12.04;62.89
70027;BME280;57506;50.092;15.804;2023-03-26T14:21:50;97804.03;;;11.91;66.04
70027;BME280;57506;50.092;15.804;2023-03-26T14:24:42;97791.47;;;11.73;67.86
70027;BME280;57506;50.092;15.804;2023-03-26T14:35:35;97794.75;;;11.64;67.43
70027;BME280;57506;50.092;15.804;2023-03-26T14:38:13;97798.97;;;11.60;69.20
70027;BME280;57506;50.092;15.804;2023-03-26T14:43:51;97806.69;;;11.56;67.75
70027;BME280;57506;50.092;15.804;2023-03-26T14:54:58;97795.69;;;11.57;70.66
70027;BME280;57506;50.092;15.804;2023-03-26T15:11:40;97804.44;;;11.18;75.50
70027;BME280;57506;50.092;15.804;2023-03-26T15:22:32;97792.91;;;10.99;75.05
70027;BME280;57506;50.092;15.804;2023-03-26T15:43:11;97810.34;;;10.00;94.20
70027;BME280;57506;50.092;15.804;2023-03-26T15:46:19;97809.06;;;9.85;94.22
70027;BME280;57506;50.092;15.804;2023-03-26T15:51:29;97795.06;;;9.58;99.24
70027;BME280;57506;50.092;15.804;2023-03-26T15:54:03;97792.09;;;9.41;100.00
70027;BME280;57506;50.092;15.804;2023-03-26T15:59:23;97791.47;;;9.14;100.00
70027;BME280;57506;50.092;15.804;2023-03-26T16:04:55;97773.00;;;8.99;100.00
70027;BME280;57506;50.092;15.804;2023-03-26T16:10:32;97768.94;;;9.15;100.00
70027;BME280;57506;50.092;15.804;2023-03-26T16:18:38;97769.53;;;9.17;100.00
70027;BME280;57506;50.092;15.804;2023-03-26T16:37:34;97749.44;;;8.70;100.00
70027;BME280;57506;50.092;15.804;2023-03-26T16:48:54;97740.97;;;8.41;100.00
70027;BME280;57506;50.092;15.804;2023-03-26T16:54:24;97732.09;;;8.41;100.00
70027;BME280;57506;50.092;15.804;2023-03-26T16:57:05;97739.84;;;8.56;100.00
70027;BME280;57506;50.092;15.804;2023-03-26T17:17:11;97738.72;;;7.87;100.00
70027;BME280;57506;50.092;15.804;2023-03-26T17:19:56;97744.69;;;7.89;100.00
70027;BME280;57506;50.092;15.804;2023-03-26T17:25:20;97737.31;;;7.65;100.00
70027;BME280;57506;50.092;15.804;2023-03-26T17:31:25;97744.16;;;7.54;100.00
70027;BME280;57506;50.092;15.804;2023-03-26T17:33:52;97750.56;;;7.53;100.00
70027;BME280;57506;50.092;15.804;2023-03-26T17:36:38;97746.84;;;7.48;100.00
70027;BME280;57506;50.092;15.804;2023-03-26T17:39:20;97746.44;;;7.51;100.00
70027;BME280;57506;50.092;15.804;2023-03-26T17:44:47;97749.16;;;7.18;100.00
70027;BME280;57506;50.092;15.804;2023-03-26T17:47:21;97734.97;;;7.11;100.00
70027;BME280;57506;50.092;15.804;2023-03-26T17:49:51;97728.38;;;6.87;100.00
70027;BME280;57506;50.092;15.804;2023-03-26T17:52:46;97717.25;;;6.90;100.00
70027;BME280;57506;50.092;15.804;2023-03-26T17:55:17;97718.88;;;6.84;100.00
70027;BME280;57506;50.092;15.804;2023-03-26T17:57:47;97710.88;;;6.71;100.00
70027;BME280;57506;50.092;15.804;2023-03-26T18:00:28;97696.66;;;6.71;100.00
70027;BME280;57506;50.092;15.804;2023-03-26T18:02:59;97691.31;;;6.64;100.00
70027;BME280;57506;50.092;15.804;2023-03-26T18:05:28;97697.50;;;6.64;100.00
70027;BME280;57506;50.092;15.804;2023-03-26T18:16:42;97671.75;;;6.63;100.00
70027;BME280;57506;50.092;15.804;2023-03-26T18:19:13;97671.97;;;6.62;100.00
70027;BME280;57506;50.092;15.804;2023-03-26T18:21:48;97662.06;;;6.56;100.00
70027;BME280;57506;50.092;15.804;2023-03-26T18:24:21;97667.84;;;6.59;100.00
70027;BME280;57506;50.092;15.804;2023-03-26T18:27:04;97668.47;;;6.61;100.00
70027;BME280;57506;50.092;15.804;2023-03-26T18:29:33;97671.94;;;6.68;100.00
70027;BME280;57506;50.092;15.804;2023-03-26T18:32:15;97667.41;;;6.89;100.00
70027;BME280;57506;50.092;15.804;2023-03-26T18:34:48;97660.00;;;6.78;100.00
70027;BME280;57506;50.092;15.804;2023-03-26T18:37:29;97646.19;;;6.67;100.00
70027;BME280;57506;50.092;15.804;2023-03-26T18:40:16;97639.00;;;6.68;100.00
70027;BME280;57506;50.092;15.804;2023-03-26T18:42:51;97632.81;;;6.67;100.00
70027;BME280;57506;50.092;15.804;2023-03-26T18:45:24;97632.81;;;6.67;100.00
70027;BME280;57506;50.092;15.804;2023-03-26T18:47:56;97635.28;;;6.69;100.00
70027;BME280;57506;50.092;15.804;2023-03-26T18:50:27;97630.75;;;6.70;100.00
70027;BME280;57506;50.092;15.804;2023-03-26T18:52:57;97615.75;;;6.55;100.00
70027;BME280;57506;50.092;15.804;2023-03-26T18:55:28;97637.56;;;6.65;100.00
70027;BME280;57506;50.092;15.804;2023-03-26T18:57:55;97633.66;;;6.61;100.00
70027;BME280;57506;50.092;15.804;2023-03-26T19:00:23;97640.25;;;6.65;100.00
70027;BME280;57506;50.092;15.804;2023-03-26T19:03:02;97630.78;;;6.63;100.00
70027;BME280;57506;50.092;15.804;2023-03-26T19:05:29;97633.00;;;6.66;100.00
70027;BME280;57506;50.092;15.804;2023-03-26T19:07:57;97622.94;;;6.61;100.00
70027;BME280;57506;50.092;15.804;2023-03-26T19:10:28;97638.59;;;6.58;100.00